createdAt,value
2023-01-13T00:00:00.474Z,20
2023-01-13T00:03:00.392Z,24
2023-01-13T00:05:00.482Z,18
2023-01-13T00:08:00.388Z,23
2023-01-13T00:11:00.428Z,23
2023-01-13T00:16:00.680Z,29
2023-01-13T00:19:00.400Z,28
2023-01-13T00:22:00.407Z,24
2023-01-13T00:25:00.378Z,33
2023-01-13T00:28:00.410Z,25
2023-01-13T00:31:00.392Z,32
2023-01-13T00:33:00.417Z,28
2023-01-13T00:36:00.391Z,39
2023-01-13T00:39:00.407Z,20
2023-01-13T00:41:00.444Z,23
2023-01-13T00:44:00.462Z,18
2023-01-13T00:47:00.436Z,22
2023-01-13T00:50:00.366Z,28
2023-01-13T00:52:00.406Z,12
2023-01-13T00:54:00.415Z,24
2023-01-13T00:57:00.406Z,18
2023-01-13T00:59:00.398Z,34
2023-01-13T01:02:00.523Z,20
2023-01-13T01:05:00.380Z,16
2023-01-13T01:07:00.436Z,16
2023-01-13T01:09:00.394Z,10
2023-01-13T01:11:00.439Z,25
2023-01-13T01:14:00.392Z,30
2023-01-13T01:16:00.429Z,20
2023-01-13T01:18:00.421Z,45
2023-01-13T01:20:00.440Z,17
2023-01-13T01:23:00.378Z,10
2023-01-13T01:26:00.569Z,19
2023-01-13T01:29:00.407Z,14
2023-01-13T01:32:00.447Z,11
2023-01-13T01:35:00.444Z,19
2023-01-13T01:38:00.388Z,22
2023-01-13T01:40:00.387Z,22
2023-01-13T01:43:00.422Z,29
2023-01-13T01:46:00.396Z,35
2023-01-13T01:49:00.462Z,29
2023-01-13T01:52:00.390Z,23
2023-01-13T01:54:00.420Z,21
2023-01-13T01:56:00.374Z,36
2023-01-13T01:59:00.402Z,12
2023-01-13T02:02:00.610Z,5
2023-01-13T02:05:00.425Z,17
2023-01-13T02:07:00.406Z,26
2023-01-13T02:09:00.365Z,29
2023-01-13T02:11:00.442Z,16
2023-01-13T02:14:00.383Z,22
2023-01-13T02:17:00.393Z,13
2023-01-13T02:20:00.388Z,18
2023-01-13T02:23:00.368Z,7
2023-01-13T02:25:00.398Z,37
2023-01-13T02:28:00.467Z,17
2023-01-13T02:32:00.380Z,11
2023-01-13T02:34:00.419Z,14
2023-01-13T02:37:00.484Z,17
2023-01-13T02:39:06.969Z,18
2023-01-13T02:42:00.433Z,12
2023-01-13T02:46:00.426Z,11
2023-01-13T02:48:00.396Z,15
2023-01-13T02:51:00.399Z,8
2023-01-13T02:53:00.393Z,18
2023-01-13T02:56:00.396Z,7
2023-01-13T02:58:00.399Z,9
2023-01-13T03:00:00.479Z,4
2023-01-13T03:03:00.436Z,5
2023-01-13T03:06:00.430Z,11
2023-01-13T03:08:00.406Z,5
2023-01-13T03:10:00.479Z,11
2023-01-13T03:13:00.393Z,9
2023-01-13T03:15:07.023Z,11
2023-01-13T03:18:00.450Z,13
2023-01-13T03:21:00.414Z,9
2023-01-13T03:23:00.408Z,23
2023-01-13T03:25:00.400Z,46
2023-01-13T03:28:00.416Z,8
2023-01-13T03:30:00.426Z,16
2023-01-13T03:33:00.478Z,20
2023-01-13T03:35:00.524Z,18
2023-01-13T03:38:00.473Z,11
2023-01-13T03:40:10.762Z,6
2023-01-13T03:42:10.879Z,16
2023-01-13T03:45:02.164Z,16
2023-01-13T03:48:00.467Z,14
2023-01-13T03:51:00.487Z,42
2023-01-13T03:54:00.470Z,9
2023-01-13T03:56:21.156Z,10
2023-01-13T03:59:00.473Z,12
2023-01-13T04:02:00.652Z,18
2023-01-13T04:05:00.481Z,8
2023-01-13T04:08:00.460Z,4
2023-01-13T04:12:00.471Z,9
2023-01-13T04:15:00.442Z,11
2023-01-13T04:18:00.438Z,11
2023-01-13T04:20:00.467Z,29
2023-01-13T04:23:00.465Z,17
2023-01-13T04:26:00.456Z,11
2023-01-13T04:29:00.450Z,11
2023-01-13T04:32:00.643Z,21
2023-01-13T04:35:00.461Z,10
2023-01-13T04:38:00.447Z,23
2023-01-13T04:40:00.477Z,11
2023-01-13T04:43:00.486Z,6
2023-01-13T04:46:00.481Z,11
2023-01-13T04:48:00.525Z,22
2023-01-13T04:51:10.763Z,9
2023-01-13T04:54:00.474Z,6
2023-01-13T04:57:00.440Z,11
2023-01-13T04:59:00.467Z,39
2023-01-13T05:01:00.530Z,13
2023-01-13T05:04:00.496Z,10
2023-01-13T05:07:00.484Z,7
2023-01-13T05:10:00.448Z,4
2023-01-13T05:12:00.485Z,15
2023-01-13T05:15:00.462Z,9
2023-01-13T05:18:00.441Z,19
2023-01-13T05:20:00.462Z,6
2023-01-13T05:23:00.480Z,24
2023-01-13T05:26:00.447Z,12
2023-01-13T05:28:00.467Z,19
2023-01-13T05:32:00.454Z,6
2023-01-13T05:34:00.465Z,13
2023-01-13T05:36:00.465Z,10
2023-01-13T05:39:00.475Z,14
2023-01-13T05:41:00.452Z,6
2023-01-13T05:44:00.467Z,16
2023-01-13T05:48:00.467Z,15
2023-01-13T05:52:00.448Z,15
2023-01-13T05:54:00.442Z,21
2023-01-13T05:56:00.451Z,5
2023-01-13T06:00:00.468Z,7
2023-01-13T06:02:00.469Z,8
2023-01-13T06:05:00.466Z,22
2023-01-13T06:08:00.464Z,21
2023-01-13T06:11:00.518Z,25
2023-01-13T06:14:00.439Z,27
2023-01-13T06:16:00.668Z,7
2023-01-13T06:19:00.419Z,16
2023-01-13T06:21:00.435Z,5
2023-01-13T06:24:00.459Z,35
2023-01-13T06:27:00.455Z,17
2023-01-13T06:30:00.443Z,4
2023-01-13T06:32:00.487Z,20
2023-01-13T06:35:00.474Z,8
2023-01-13T06:38:00.460Z,4
2023-01-13T06:41:00.449Z,10
2023-01-13T06:43:00.454Z,4
2023-01-13T06:45:00.463Z,9
2023-01-13T06:47:00.547Z,8
2023-01-13T06:50:00.508Z,7
2023-01-13T06:53:00.456Z,4
2023-01-13T06:55:10.758Z,23
2023-01-13T06:58:00.498Z,6
2023-01-13T07:00:00.503Z,17
2023-01-13T07:02:00.597Z,16
2023-01-13T07:05:00.437Z,13
2023-01-13T07:07:00.452Z,21
2023-01-13T07:09:00.469Z,26
2023-01-13T07:12:00.468Z,10
2023-01-13T07:14:00.532Z,15
2023-01-13T07:17:00.491Z,17
2023-01-13T07:19:00.548Z,11
2023-01-13T07:22:00.500Z,13
2023-01-13T07:24:12.097Z,22
2023-01-13T07:27:00.492Z,28
2023-01-13T07:30:02.206Z,32
2023-01-13T07:33:10.758Z,42
2023-01-13T07:36:00.494Z,35
2023-01-13T07:38:00.525Z,47
2023-01-13T07:41:00.526Z,57
2023-01-13T07:44:00.595Z,57
2023-01-13T07:47:00.486Z,32
2023-01-13T07:51:00.444Z,52
2023-01-13T07:54:00.463Z,29
2023-01-13T07:56:00.473Z,52
2023-01-13T07:59:00.440Z,28
2023-01-13T08:02:00.701Z,16
2023-01-13T08:04:00.466Z,41
2023-01-13T08:07:10.761Z,17
2023-01-13T08:10:00.459Z,34
2023-01-13T08:12:00.492Z,27
2023-01-13T08:14:00.483Z,54
2023-01-13T08:17:10.742Z,56
2023-01-13T08:20:00.511Z,49
2023-01-13T08:22:00.501Z,55
2023-01-13T08:25:00.450Z,26
2023-01-13T08:27:00.458Z,27
2023-01-13T08:31:10.854Z,42
2023-01-13T08:34:22.772Z,48
2023-01-13T08:37:10.754Z,24
2023-01-13T08:40:00.475Z,41
2023-01-13T08:43:00.466Z,40
2023-01-13T08:46:00.491Z,53
2023-01-13T08:48:10.744Z,40
2023-01-13T08:51:00.468Z,34
2023-01-13T08:54:02.164Z,32
2023-01-13T08:57:00.497Z,24
2023-01-13T09:00:00.521Z,28
2023-01-13T09:03:00.445Z,12
2023-01-13T09:05:02.153Z,45
2023-01-13T09:08:10.738Z,19
2023-01-13T09:11:00.516Z,31
2023-01-13T09:14:02.452Z,39
2023-01-13T09:17:00.453Z,67
2023-01-13T09:19:00.528Z,22
2023-01-13T09:22:00.478Z,42
2023-01-13T09:24:00.485Z,62
2023-01-13T09:27:00.565Z,58
2023-01-13T09:29:10.734Z,22
2023-01-13T09:31:10.749Z,34
2023-01-13T09:33:10.834Z,27
2023-01-13T09:36:00.454Z,53
2023-01-13T09:38:02.197Z,42
2023-01-13T09:41:10.727Z,41
2023-01-13T09:44:00.452Z,67
2023-01-13T09:48:00.478Z,50
2023-01-13T09:51:00.518Z,65
2023-01-13T09:54:00.466Z,51
2023-01-13T09:56:00.466Z,29
2023-01-13T09:59:02.184Z,79
2023-01-13T10:02:00.455Z,38
2023-01-13T10:04:00.448Z,31
2023-01-13T10:06:03.870Z,56
2023-01-13T10:09:10.818Z,41
2023-01-13T10:12:02.181Z,87
2023-01-13T10:15:00.462Z,51
2023-01-13T10:18:00.458Z,60
2023-01-13T10:20:00.447Z,29
2023-01-13T10:22:00.544Z,60
2023-01-13T10:25:00.487Z,69
2023-01-13T10:27:00.458Z,60
2023-01-13T10:29:00.505Z,71
2023-01-13T10:34:00.512Z,62
2023-01-13T10:36:08.415Z,61
2023-01-13T10:39:00.486Z,82
2023-01-13T10:42:12.507Z,49
2023-01-13T10:45:00.501Z,84
2023-01-13T10:48:00.491Z,63
2023-01-13T10:50:03.863Z,91
2023-01-13T10:53:00.470Z,81
2023-01-13T10:56:00.482Z,97
2023-01-13T10:59:00.493Z,96
2023-01-13T11:01:00.632Z,90
2023-01-13T11:03:10.747Z,74
2023-01-13T11:06:00.522Z,102
2023-01-13T11:08:00.509Z,49
2023-01-13T11:11:00.481Z,105
2023-01-13T11:14:00.485Z,96
2023-01-13T11:16:10.798Z,44
2023-01-13T11:19:00.496Z,51
2023-01-13T11:22:00.480Z,85
2023-01-13T11:24:00.539Z,107
2023-01-13T11:27:00.462Z,61
2023-01-13T11:30:00.450Z,88
2023-01-13T11:33:00.498Z,88
2023-01-13T11:35:00.510Z,94
2023-01-13T11:38:00.462Z,51
2023-01-13T11:40:00.529Z,104
2023-01-13T11:43:00.505Z,82
2023-01-13T11:45:00.540Z,72
2023-01-13T11:48:00.538Z,72
2023-01-13T11:51:00.486Z,66
2023-01-13T11:53:00.580Z,46
2023-01-13T11:56:00.558Z,65
2023-01-13T11:58:10.753Z,92
2023-01-13T12:01:00.524Z,81
2023-01-13T12:04:00.472Z,98
2023-01-13T12:07:10.753Z,72
2023-01-13T12:09:10.768Z,57
2023-01-13T12:12:00.442Z,24
2023-01-13T12:14:00.505Z,39
2023-01-13T12:16:00.486Z,34
2023-01-13T12:19:00.484Z,17
2023-01-13T12:21:00.465Z,45
2023-01-13T12:23:02.168Z,45
2023-01-13T12:26:00.515Z,81
2023-01-13T12:28:00.516Z,56
2023-01-13T12:30:03.854Z,48
2023-01-13T12:33:00.459Z,45
2023-01-13T12:37:00.493Z,83
2023-01-13T12:40:00.472Z,50
2023-01-13T12:42:10.798Z,56
2023-01-13T12:45:00.487Z,59
2023-01-13T12:48:00.540Z,50
2023-01-13T12:51:00.480Z,72
2023-01-13T12:53:00.497Z,71
2023-01-13T12:56:00.516Z,98
2023-01-13T12:58:02.203Z,45
2023-01-13T13:01:10.887Z,40
2023-01-13T13:04:00.560Z,54
2023-01-13T13:08:00.455Z,87
2023-01-13T13:10:00.462Z,51
2023-01-13T13:12:00.463Z,76
2023-01-13T13:15:03.044Z,54
2023-01-13T13:19:00.460Z,59
2023-01-13T13:21:02.986Z,52
2023-01-13T13:23:00.465Z,52
2023-01-13T13:26:00.462Z,35
2023-01-13T13:28:02.175Z,87
2023-01-13T13:31:10.825Z,69
2023-01-13T13:34:00.466Z,58
2023-01-13T13:36:00.460Z,55
2023-01-13T13:38:00.499Z,68
2023-01-13T13:41:00.486Z,99
2023-01-13T13:43:00.489Z,120
2023-01-13T13:46:00.527Z,90
2023-01-13T13:49:00.464Z,50
2023-01-13T13:52:00.542Z,68
2023-01-13T13:55:00.492Z,109
2023-01-13T13:58:00.456Z,85
2023-01-13T14:00:00.559Z,85
2023-01-13T14:03:00.467Z,52
2023-01-13T14:05:00.498Z,69
2023-01-13T14:08:00.467Z,41
2023-01-13T14:11:00.441Z,62
2023-01-13T14:13:00.446Z,50
2023-01-13T14:15:00.429Z,88
2023-01-13T14:18:00.429Z,61
2023-01-13T14:21:00.420Z,82
2023-01-13T14:23:00.454Z,74
2023-01-13T14:26:00.484Z,50
2023-01-13T14:29:00.627Z,84
2023-01-13T14:32:00.438Z,77
2023-01-13T14:36:00.497Z,59
2023-01-13T14:39:00.432Z,56
2023-01-13T14:43:00.417Z,63
2023-01-13T14:46:12.403Z,96
2023-01-13T14:49:10.706Z,132
2023-01-13T14:52:10.697Z,89
2023-01-13T14:55:10.705Z,72
2023-01-13T14:57:10.668Z,71
2023-01-13T15:00:00.464Z,52
2023-01-13T15:03:00.482Z,83
2023-01-13T15:05:10.708Z,65
2023-01-13T15:08:10.676Z,92
2023-01-13T15:11:00.439Z,80
2023-01-13T15:13:00.438Z,95
2023-01-13T15:16:00.489Z,75
2023-01-13T15:18:10.724Z,64
2023-01-13T15:21:03.805Z,65
2023-01-13T15:24:00.427Z,100
2023-01-13T15:26:00.451Z,85
2023-01-13T15:28:00.408Z,80
2023-01-13T15:31:00.495Z,85
2023-01-13T15:34:00.426Z,42
2023-01-13T15:37:00.411Z,102
2023-01-13T15:39:00.432Z,90
2023-01-13T15:41:00.423Z,129
2023-01-13T15:43:00.395Z,79
2023-01-13T15:47:00.426Z,92
2023-01-13T15:49:12.414Z,67
2023-01-13T15:52:00.395Z,45
2023-01-13T15:55:00.428Z,71
2023-01-13T15:57:10.656Z,88
2023-01-13T16:00:00.448Z,81
2023-01-13T16:03:00.430Z,93
2023-01-13T16:05:02.175Z,113
2023-01-13T16:08:00.403Z,101
2023-01-13T16:10:00.415Z,96
2023-01-13T16:13:00.405Z,80
2023-01-13T16:15:00.439Z,74
2023-01-13T16:17:00.415Z,72
2023-01-13T16:20:00.443Z,90
2023-01-13T16:23:00.431Z,55
2023-01-13T16:26:00.441Z,112
2023-01-13T16:28:00.476Z,64
2023-01-13T16:31:00.433Z,52
2023-01-13T16:35:00.486Z,112
2023-01-13T16:38:00.422Z,64
2023-01-13T16:40:00.451Z,87
2023-01-13T16:43:00.464Z,44
2023-01-13T16:46:00.523Z,68
2023-01-13T16:49:00.474Z,85
2023-01-13T16:52:00.447Z,74
2023-01-13T16:55:00.518Z,81
2023-01-13T16:58:00.482Z,96
2023-01-13T17:00:00.631Z,69
2023-01-13T17:03:00.498Z,87
2023-01-13T17:06:00.477Z,78
2023-01-13T17:08:00.553Z,66
2023-01-13T17:11:00.496Z,95
2023-01-13T17:14:00.502Z,84
2023-01-13T17:16:00.559Z,78
2023-01-13T17:19:00.503Z,92
2023-01-13T17:22:00.515Z,67
2023-01-13T17:24:00.509Z,82
2023-01-13T17:28:00.512Z,69
2023-01-13T17:30:00.464Z,97
2023-01-13T17:34:00.838Z,75
2023-01-13T17:36:00.570Z,89
2023-01-13T17:39:00.513Z,103
2023-01-13T17:41:00.501Z,82
2023-01-13T17:43:00.539Z,113
2023-01-13T17:46:00.552Z,81
2023-01-13T17:49:00.541Z,70
2023-01-13T17:52:00.499Z,98
2023-01-13T17:55:00.619Z,87
2023-01-13T17:58:00.491Z,66
2023-01-13T18:00:00.614Z,68
2023-01-13T18:03:00.496Z,80
2023-01-13T18:05:00.508Z,61
2023-01-13T18:07:00.574Z,59
2023-01-13T18:10:00.532Z,95
2023-01-13T18:12:00.499Z,117
2023-01-13T18:15:00.481Z,90
2023-01-13T18:17:00.480Z,145
2023-01-13T18:20:00.511Z,52
2023-01-13T18:22:00.471Z,83
2023-01-13T18:25:00.512Z,103
2023-01-13T18:27:00.494Z,82
2023-01-13T18:30:00.504Z,87
2023-01-13T18:32:00.509Z,68
2023-01-13T18:35:05.515Z,67
2023-01-13T18:37:00.489Z,96
2023-01-13T18:39:00.514Z,91
2023-01-13T18:42:00.472Z,97
2023-01-13T18:44:00.452Z,64
2023-01-13T18:46:00.467Z,119
2023-01-13T18:48:00.495Z,115
2023-01-13T18:50:02.180Z,86
2023-01-13T18:53:00.492Z,75
2023-01-13T18:56:00.468Z,93
2023-01-13T18:59:00.456Z,80
2023-01-13T19:01:00.686Z,126
2023-01-13T19:04:00.493Z,119
2023-01-13T19:07:00.454Z,88
2023-01-13T19:09:00.501Z,131
2023-01-13T19:12:00.509Z,104
2023-01-13T19:15:00.480Z,122
2023-01-13T19:18:00.469Z,56
2023-01-13T19:21:00.460Z,80
2023-01-13T19:23:00.500Z,83
2023-01-13T19:25:00.472Z,102
2023-01-13T19:28:00.535Z,112
2023-01-13T19:31:00.564Z,110
2023-01-13T19:35:00.487Z,72
2023-01-13T19:39:00.478Z,104
2023-01-13T19:41:00.487Z,97
2023-01-13T19:43:00.482Z,79
2023-01-13T19:46:00.545Z,59
2023-01-13T19:48:00.485Z,113
2023-01-13T19:50:00.505Z,63
2023-01-13T19:53:01.544Z,78
2023-01-13T19:56:00.523Z,75
2023-01-13T19:59:00.502Z,94
2023-01-13T20:02:00.623Z,126
2023-01-13T20:05:00.479Z,103
2023-01-13T20:07:00.481Z,110
2023-01-13T20:10:00.499Z,98
2023-01-13T20:12:00.484Z,130
2023-01-13T20:15:00.517Z,66
2023-01-13T20:18:00.463Z,137
2023-01-13T20:20:00.540Z,113
2023-01-13T20:23:00.479Z,82
2023-01-13T20:26:00.496Z,90
2023-01-13T20:28:00.472Z,91
2023-01-13T20:30:00.476Z,117
2023-01-13T20:33:00.501Z,88
2023-01-13T20:35:00.580Z,127
2023-01-13T20:38:10.772Z,100
2023-01-13T20:41:00.486Z,132
2023-01-13T20:43:00.575Z,109
2023-01-13T20:46:00.512Z,115
2023-01-13T20:48:00.479Z,114
2023-01-13T20:50:00.491Z,111
2023-01-13T20:52:00.586Z,117
2023-01-13T20:54:00.580Z,105
2023-01-13T20:57:00.476Z,91
2023-01-13T20:59:00.569Z,123
2023-01-13T21:02:00.510Z,134
2023-01-13T21:04:00.555Z,91
2023-01-13T21:07:00.493Z,94
2023-01-13T21:09:00.501Z,47
2023-01-13T21:12:00.498Z,92
2023-01-13T21:15:00.487Z,95
2023-01-13T21:17:00.511Z,136
2023-01-13T21:20:00.551Z,101
2023-01-13T21:23:00.499Z,102
2023-01-13T21:26:00.511Z,118
2023-01-13T21:29:00.510Z,121
2023-01-13T21:32:00.508Z,127
2023-01-13T21:35:00.503Z,102
2023-01-13T21:38:00.525Z,132
2023-01-13T21:41:00.483Z,135
2023-01-13T21:43:00.554Z,111
2023-01-13T21:45:00.523Z,101
2023-01-13T21:48:00.508Z,137
2023-01-13T21:51:00.492Z,134
2023-01-13T21:53:00.508Z,105
2023-01-13T21:55:00.541Z,120
2023-01-13T21:58:00.492Z,100
2023-01-13T22:00:02.175Z,98
2023-01-13T22:03:00.491Z,149
2023-01-13T22:06:00.548Z,103
2023-01-13T22:08:03.931Z,170
2023-01-13T22:11:00.552Z,150
2023-01-13T22:14:00.489Z,440
2023-01-13T22:16:00.511Z,134
2023-01-13T22:19:00.499Z,108
2023-01-13T22:22:00.483Z,89
2023-01-13T22:24:00.520Z,105
2023-01-13T22:27:00.496Z,138
2023-01-13T22:29:00.510Z,138
2023-01-13T22:32:00.548Z,101
2023-01-13T22:34:00.493Z,141
2023-01-13T22:36:00.471Z,108
2023-01-13T22:39:00.722Z,96
2023-01-13T22:41:00.614Z,129
2023-01-13T22:44:00.516Z,123
2023-01-13T22:46:10.839Z,98
2023-01-13T22:49:00.499Z,96
2023-01-13T22:51:02.216Z,118
2023-01-13T22:54:10.804Z,141
2023-01-13T22:57:00.497Z,65
2023-01-13T23:00:00.525Z,114
2023-01-13T23:02:00.493Z,99
2023-01-13T23:05:00.534Z,93
2023-01-13T23:07:00.495Z,122
2023-01-13T23:09:00.614Z,98
2023-01-13T23:12:00.510Z,107
2023-01-13T23:14:10.771Z,166
2023-01-13T23:17:00.541Z,125
2023-01-13T23:20:00.513Z,117
2023-01-13T23:22:00.557Z,141
2023-01-13T23:25:00.464Z,130
2023-01-13T23:27:00.480Z,130
2023-01-13T23:29:00.522Z,150
2023-01-13T23:32:00.516Z,115
2023-01-13T23:34:00.495Z,147
2023-01-13T23:36:00.503Z,157
2023-01-13T23:38:10.780Z,134
2023-01-13T23:41:00.588Z,125
2023-01-13T23:44:00.532Z,128
2023-01-13T23:46:00.609Z,94
2023-01-13T23:49:00.493Z,122
2023-01-13T23:51:10.775Z,121
2023-01-13T23:54:00.515Z,74
2023-01-13T23:56:00.526Z,134
2023-01-13T23:59:00.586Z,142
